Time;durP1;ratioP1;P1;durP2;ratioP2;P2;SDS_P1;SDS_P2;PMS_P1;PMS_P2;Temp;Humidity;BMP_temperature;BMP_pressure;BME280_temperature;BME280_humidity;BME280_pressure;Samples;Min_cycle;Max_cycle;Signal;HPM_P1;HPM_P2
2022/04/26 03:36:17;;;;;;;;;;;5.60;99.90;;;;;;5089661;28;19920;-75
2022/04/26 03:38:45;;;;;;;;;;;5.50;99.90;;;;;;5077749;28;19964;-75
2022/04/26 03:41:10;;;;;;;;;;;5.50;99.90;;;;;;5080276;28;19971;-75
2022/04/26 03:43:36;;;;;;;;;;;5.50;99.90;;;;;;5085315;28;20430;-75
2022/04/26 03:46:01;;;;;;;;;;;5.60;99.90;;;;;;5087036;28;19931;-75
2022/04/26 03:48:28;;;;;;;;;;;5.50;99.90;;;;;;5095283;28;19927;-75
2022/04/26 03:50:53;;;;;;;;;;;5.50;99.90;;;;;;5093720;28;19920;-75
2022/04/26 03:53:19;;;;;;;;;;;5.50;99.90;;;;;;5094106;28;20389;-75
2022/04/26 03:55:44;;;;;;;;;;;5.50;99.90;;;;;;5094965;28;19924;-75
2022/04/26 03:58:10;;;;;;;;;;;5.50;99.90;;;;;;5094044;28;20001;-75
2022/04/26 04:00:36;;;;;;;;;;;5.50;99.90;;;;;;5093639;28;19974;-77
2022/04/26 04:03:01;;;;;;;;;;;5.50;99.90;;;;;;5094228;28;19920;-75
2022/04/26 04:05:27;;;;;;;;;;;5.50;99.90;;;;;;5092424;28;19923;-76
2022/04/26 04:07:52;;;;;;;;;;;5.40;99.90;;;;;;5093510;28;19942;-76
2022/04/26 04:10:18;;;;;;;;;;;5.40;99.90;;;;;;5092888;28;19920;-76
2022/04/26 04:12:43;;;;;;;;;;;5.40;99.90;;;;;;5094452;28;20131;-74
2022/04/26 04:15:09;;;;;;;;;;;5.40;99.90;;;;;;5092343;28;20325;-74
2022/04/26 04:17:35;;;;;;;;;;;5.40;99.90;;;;;;5094213;28;19923;-74
2022/04/26 04:20:00;;;;;;;;;;;5.40;99.90;;;;;;5093324;28;19920;-74
2022/04/26 04:22:26;;;;;;;;;;;5.40;99.90;;;;;;5093295;28;20026;-74
2022/04/26 04:24:51;;;;;;;;;;;5.40;99.90;;;;;;5105401;28;20002;-76
2022/04/26 04:27:17;;;;;;;;;;;5.40;99.90;;;;;;5092284;28;19924;-73
2022/04/26 04:29:46;;;;;;;;;;;5.40;99.90;;;;;;5093064;28;19919;-72
2022/04/26 04:32:11;;;;;;;;;;;6.00;99.90;;;;;;5092375;28;20012;-72
2022/04/26 04:34:37;;;;;;;;;;;5.50;99.90;;;;;;5089684;28;19999;-70
2022/04/26 04:37:02;;;;;;;;;;;5.50;99.90;;;;;;5075872;28;19964;-71
2022/04/26 04:39:28;;;;;;;;;;;5.50;99.90;;;;;;5089389;28;19919;-74
2022/04/26 04:41:53;;;;;;;;;;;5.60;99.90;;;;;;5093632;28;20309;-74
2022/04/26 04:44:19;;;;;;;;;;;5.60;99.90;;;;;;5092458;28;19920;-75
2022/04/26 04:46:49;;;;;;;;;;;5.60;99.90;;;;;;5092005;28;19932;-75
2022/04/26 04:49:14;;;;;;;;;;;5.70;99.90;;;;;;5072511;28;20011;-72
2022/04/26 04:51:40;;;;;;;;;;;5.80;99.90;;;;;;5073477;28;20348;-73
2022/04/26 04:54:08;;;;;;;;;;;5.80;99.90;;;;;;5071505;28;19942;-74
2022/04/26 04:56:34;;;;;;;;;;;5.90;99.90;;;;;;5072470;28;20363;-76
2022/04/26 04:58:59;;;;;;;;;;;5.90;99.90;;;;;;5073212;28;19920;-75
2022/04/26 05:01:25;;;;;;;;;;;6.00;99.90;;;;;;5071503;28;20375;-74
2022/04/26 05:03:51;;;;;;;;;;;6.00;99.90;;;;;;5103036;28;19999;-75
2022/04/26 05:06:17;;;;;;;;;;;6.10;99.90;;;;;;5093123;28;19931;-75
2022/04/26 05:08:43;;;;;;;;;;;6.10;99.90;;;;;;5093066;28;19920;-75
2022/04/26 05:11:09;;;;;;;;;;;6.10;99.90;;;;;;5091876;28;19920;-75
2022/04/26 05:13:34;;;;;;;;;;;6.20;99.90;;;;;;5093430;28;19924;-74
2022/04/26 05:16:00;;;;;;;;;;;6.20;99.90;;;;;;5090998;28;20311;-74
2022/04/26 05:18:27;;;;;;;;;;;6.20;99.90;;;;;;5091757;28;20359;-73
2022/04/26 05:20:52;;;;;;;;;;;6.20;99.90;;;;;;5093303;28;20419;-70
2022/04/26 05:26:02;;;;;;;;;;;6.30;99.90;;;;;;5091297;28;19920;-71
2022/04/26 05:28:27;;;;;;;;;;;6.40;99.90;;;;;;5091336;28;20064;-71
2022/04/26 05:30:54;;;;;;;;;;;6.60;99.90;;;;;;5090971;28;19920;-71
2022/04/26 05:33:20;;;;;;;;;;;6.70;99.90;;;;;;5091125;28;19920;-71
2022/04/26 05:35:47;;;;;;;;;;;6.80;99.90;;;;;;5108098;28;19931;-70
2022/04/26 05:38:13;;;;;;;;;;;6.90;99.90;;;;;;5092881;28;19926;-73
2022/04/26 05:40:38;;;;;;;;;;;7.00;99.90;;;;;;5091652;28;19920;-72
2022/04/26 05:43:04;;;;;;;;;;;7.00;99.90;;;;;;5087980;28;20331;-72
2022/04/26 05:45:29;;;;;;;;;;;7.10;99.90;;;;;;5089901;28;19943;-72
2022/04/26 05:47:55;;;;;;;;;;;7.10;99.90;;;;;;5090005;28;19919;-72
2022/04/26 05:50:23;;;;;;;;;;;7.20;99.90;;;;;;5091582;28;20006;-72
2022/04/26 05:52:49;;;;;;;;;;;7.30;99.90;;;;;;5089306;28;19941;-72
2022/04/26 05:55:14;;;;;;;;;;;7.40;99.90;;;;;;5087896;28;19924;-72
2022/04/26 05:57:42;;;;;;;;;;;7.40;99.90;;;;;;5088878;28;19920;-72
2022/04/26 06:00:08;;;;;;;;;;;7.50;99.90;;;;;;5089539;28;20489;-72
2022/04/26 06:02:34;;;;;;;;;;;7.50;99.90;;;;;;5091683;28;20235;-72
2022/04/26 06:04:59;;;;;;;;;;;7.60;99.90;;;;;;5089158;28;19927;-72
2022/04/26 06:07:25;;;;;;;;;;;7.70;99.90;;;;;;5089952;28;19920;-72
2022/04/26 06:09:53;;;;;;;;;;;7.90;99.90;;;;;;5092136;28;19920;-72
2022/04/26 06:12:19;;;;;;;;;;;8.00;99.90;;;;;;5090958;28;19952;-72
2022/04/26 06:14:44;;;;;;;;;;;8.20;99.90;;;;;;5091562;28;20338;-72
2022/04/26 06:17:10;;;;;;;;;;;8.20;99.90;;;;;;5090928;28;20295;-72
2022/04/26 06:19:35;;;;;;;;;;;8.40;99.90;;;;;;5091911;28;19959;-72
2022/04/26 06:22:01;;;;;;;;;;;8.50;99.90;;;;;;5091295;28;19920;-72
2022/04/26 06:24:26;;;;;;;;;;;8.60;99.90;;;;;;5091568;28;19927;-72
2022/04/26 06:26:52;;;;;;;;;;;8.70;99.90;;;;;;5090604;28;19927;-72
2022/04/26 06:29:17;;;;;;;;;;;8.70;99.90;;;;;;5090769;28;20287;-72
2022/04/26 06:31:43;;;;;;;;;;;8.70;99.90;;;;;;5092933;28;19920;-72
2022/04/26 06:34:09;;;;;;;;;;;8.60;99.90;;;;;;5090382;28;20291;-72
2022/04/26 06:36:34;;;;;;;;;;;8.50;99.90;;;;;;5092472;28;19950;-72
2022/04/26 06:38:59;;;;;;;;;;;8.60;99.90;;;;;;5091562;28;20008;-72
2022/04/26 06:41:25;;;;;;;;;;;8.60;99.90;;;;;;5109660;28;19920;-72
2022/04/26 06:43:50;;;;;;;;;;;8.70;99.90;;;;;;5095825;28;19921;-72
2022/04/26 06:46:16;;;;;;;;;;;8.90;99.90;;;;;;5095144;28;20290;-72
2022/04/26 06:48:41;;;;;;;;;;;9.00;99.90;;;;;;5095948;28;19920;-72
2022/04/26 06:51:07;;;;;;;;;;;9.20;99.90;;;;;;5093682;28;20391;-72
2022/04/26 06:53:34;;;;;;;;;;;9.40;99.90;;;;;;5095469;28;19924;-72
2022/04/26 06:56:00;;;;;;;;;;;9.60;99.90;;;;;;5095482;28;19965;-72
2022/04/26 06:58:25;;;;;;;;;;;9.70;99.90;;;;;;5094885;28;19919;-72
2022/04/26 07:00:51;;;;;;;;;;;9.80;99.90;;;;;;5093883;28;20383;-72
2022/04/26 07:03:18;;;;;;;;;;;9.80;99.90;;;;;;5094294;28;19923;-72
2022/04/26 07:05:44;;;;;;;;;;;9.80;99.90;;;;;;5095616;28;19920;-72
2022/04/26 07:08:09;;;;;;;;;;;9.80;99.90;;;;;;5095003;28;19920;-72
2022/04/26 07:10:36;;;;;;;;;;;9.60;99.90;;;;;;5092501;28;19930;-72
2022/04/26 07:13:02;;;;;;;;;;;9.60;99.90;;;;;;5073673;28;20023;-72
2022/04/26 07:15:27;;;;;;;;;;;9.60;99.90;;;;;;5073501;28;20020;-72
2022/04/26 07:17:54;;;;;;;;;;;9.70;99.90;;;;;;5075446;28;19925;-72
2022/04/26 07:20:19;;;;;;;;;;;9.80;99.90;;;;;;5073825;28;20017;-72
2022/04/26 07:22:45;;;;;;;;;;;9.70;99.90;;;;;;5073557;28;19971;-72
2022/04/26 07:25:10;;;;;;;;;;;9.80;99.90;;;;;;5073605;28;20355;-72
2022/04/26 07:27:36;;;;;;;;;;;9.90;99.90;;;;;;5089655;28;19920;-72
2022/04/26 07:30:02;;;;;;;;;;;9.90;99.90;;;;;;5093644;28;19920;-72
2022/04/26 07:35:12;;;;;;;;;;;9.90;99.90;;;;;;5108346;28;19962;-72
2022/04/26 07:37:38;;;;;;;;;;;10.60;99.90;;;;;;5090301;28;20005;-76
2022/04/26 07:40:04;;;;;;;;;;;11.80;99.90;;;;;;5092928;28;19920;-73
2022/04/26 07:42:29;;;;;;;;;;;12.60;99.90;;;;;;5078433;28;19928;-70
2022/04/26 07:44:55;;;;;;;;;;;13.00;99.90;;;;;;5083351;28;20393;-71
2022/04/26 07:47:24;;;;;;;;;;;12.60;99.90;;;;;;5078180;28;19935;-71
2022/04/26 07:49:50;;;;;;;;;;;12.30;99.90;;;;;;5079506;28;19983;-75
2022/04/26 07:52:16;;;;;;;;;;;11.70;99.90;;;;;;5081648;28;20692;-71
2022/04/26 07:54:42;;;;;;;;;;;11.80;99.90;;;;;;5083784;28;19934;-74
2022/04/26 07:57:07;;;;;;;;;;;12.90;99.90;;;;;;5081884;28;20391;-72
2022/04/26 07:59:33;;;;;;;;;;;14.20;99.90;;;;;;5079423;28;19964;-75
2022/04/26 08:01:58;;;;;;;;;;;15.10;98.70;;;;;;5081268;28;19931;-71
2022/04/26 08:04:24;;;;;;;;;;;16.10;97.30;;;;;;5080993;28;19928;-71
2022/04/26 08:06:49;;;;;;;;;;;16.80;96.40;;;;;;5081637;28;20268;-68
2022/04/26 08:09:15;;;;;;;;;;;16.80;95.10;;;;;;5080167;28;19924;-69
2022/04/26 08:11:40;;;;;;;;;;;15.90;94.50;;;;;;5083104;28;19924;-69
2022/04/26 08:14:06;;;;;;;;;;;15.60;96.30;;;;;;5097746;28;19916;-69
2022/04/26 08:16:31;;;;;;;;;;;16.40;95.30;;;;;;5091549;28;19969;-68
2022/04/26 08:18:57;;;;;;;;;;;17.40;94.40;;;;;;5091892;28;19920;-68
2022/04/26 08:21:23;;;;;;;;;;;17.90;93.20;;;;;;5090671;28;20168;-77
2022/04/26 08:29:17;;;;;;;;;;;18.50;90.50;;;;;;5091549;28;19924;-76
2022/04/26 08:31:43;;;;;;;;;;;18.40;89.10;;;;;;5093813;28;20006;-72
2022/04/26 08:34:09;;;;;;;;;;;19.00;88.40;;;;;;5093585;28;19927;-79
2022/04/26 08:36:34;;;;;;;;;;;19.10;87.60;;;;;;5094079;28;19927;-77
2022/04/26 08:39:00;;;;;;;;;;;19.00;85.10;;;;;;5088698;28;19985;-77
2022/04/26 08:41:26;;;;;;;;;;;19.10;84.50;;;;;;5072707;28;19965;-75
2022/04/26 08:43:51;;;;;;;;;;;19.10;88.30;;;;;;5073636;28;19920;-76
2022/04/26 08:46:17;;;;;;;;;;;19.20;85.20;;;;;;5072669;28;19925;-75
2022/04/26 08:51:28;;;;;;;;;;;18.50;84.50;;;;;;5096544;28;19920;-75
2022/04/26 08:53:54;;;;;;;;;;;19.20;84.50;;;;;;5071590;28;19927;-70
2022/04/26 08:56:20;;;;;;;;;;;19.10;84.80;;;;;;5071991;28;19920;-72
2022/04/26 08:58:46;;;;;;;;;;;19.50;82.70;;;;;;5073300;28;19973;-73
2022/04/26 09:01:12;;;;;;;;;;;20.00;84.30;;;;;;5071048;28;20019;-77
2022/04/26 09:03:59;;;;;;;;;;;20.60;81.70;;;;;;5077212;28;19920;-75
2022/04/26 09:06:36;;;;;;;;;;;19.70;79.80;;;;;;5091994;28;20512;-79
2022/04/26 09:09:08;;;;;;;;;;;19.50;79.80;;;;;;5092100;28;20045;-75
2022/04/26 09:11:34;;;;;;;;;;;20.00;81.10;;;;;;5108225;28;19920;-74
2022/04/26 09:14:01;;;;;;;;;;;19.70;80.30;;;;;;5090031;28;20440;-80
2022/04/26 09:16:27;;;;;;;;;;;19.20;81.50;;;;;;5092007;28;20020;-75
2022/04/26 09:18:57;;;;;;;;;;;19.20;81.30;;;;;;5109251;28;20378;-73
2022/04/26 09:21:26;;;;;;;;;;;18.90;80.50;;;;;;5089161;28;20373;-71
2022/04/26 09:23:52;;;;;;;;;;;19.00;79.70;;;;;;5091791;28;20012;-71
2022/04/26 09:26:18;;;;;;;;;;;18.50;79.60;;;;;;5106402;27;19963;-73
2022/04/26 09:28:53;;;;;;;;;;;17.50;82.70;;;;;;5091695;28;19955;-76
2022/04/26 09:31:20;;;;;;;;;;;17.90;86.00;;;;;;5100887;28;19924;-75
2022/04/26 09:33:49;;;;;;;;;;;18.80;84.60;;;;;;5098336;28;20010;-73
2022/04/26 09:36:15;;;;;;;;;;;19.00;81.00;;;;;;5095661;28;19924;-71
2022/04/26 09:38:48;;;;;;;;;;;19.00;79.30;;;;;;5109987;28;19926;-72
2022/04/26 09:41:17;;;;;;;;;;;19.20;82.00;;;;;;5096806;28;19970;-73
2022/04/26 09:43:42;;;;;;;;;;;19.40;81.50;;;;;;5091040;28;20118;-72
2022/04/26 09:46:08;;;;;;;;;;;19.80;78.60;;;;;;5091581;28;20007;-76
2022/04/26 09:48:38;;;;;;;;;;;20.20;77.40;;;;;;5098993;28;19926;-75
2022/04/26 09:51:04;;;;;;;;;;;20.30;77.70;;;;;;5090722;28;19920;-76
2022/04/26 09:53:29;;;;;;;;;;;19.80;77.50;;;;;;5085568;28;19919;-71
2022/04/26 09:55:56;;;;;;;;;;;20.20;79.00;;;;;;5096886;28;20000;-73
2022/04/26 09:58:22;;;;;;;;;;;20.40;80.30;;;;;;5109053;28;19927;-73
2022/04/26 10:00:49;;;;;;;;;;;19.70;76.30;;;;;;5108130;28;19919;-72
2022/04/26 10:03:25;;;;;;;;;;;19.30;78.50;;;;;;5095951;28;19967;-70
2022/04/26 10:06:10;;;;;;;;;;;20.10;78.10;;;;;;5097935;28;19977;-77
2022/04/26 10:08:36;;;;;;;;;;;20.90;80.90;;;;;;5084207;28;19926;-74
2022/04/26 10:11:04;;;;;;;;;;;20.90;76.60;;;;;;5092668;28;19920;-71
2022/04/26 10:13:31;;;;;;;;;;;20.60;76.70;;;;;;5108412;28;19924;-73
2022/04/26 10:16:23;;;;;;;;;;;21.10;75.40;;;;;;5106293;28;19919;-75
2022/04/26 10:18:49;;;;;;;;;;;21.00;75.40;;;;;;5084574;28;19919;-73
2022/04/26 10:21:21;;;;;;;;;;;20.90;75.80;;;;;;5093524;28;19981;-76
2022/04/26 10:23:50;;;;;;;;;;;20.40;74.60;;;;;;5093711;28;19920;-74
2022/04/26 10:28:53;;;;;;;;;;;19.50;78.00;;;;;;5099491;28;20263;-70
2022/04/26 10:31:20;;;;;;;;;;;19.80;79.30;;;;;;5102131;28;20341;-75
2022/04/26 10:33:46;;;;;;;;;;;20.20;77.10;;;;;;5094847;28;20003;-75
2022/04/26 10:36:31;;;;;;;;;;;20.60;77.10;;;;;;5093841;28;19920;-76
2022/04/26 10:39:05;;;;;;;;;;;21.10;73.30;;;;;;5091360;28;19965;-78
2022/04/26 10:41:37;;;;;;;;;;;20.60;72.60;;;;;;5093796;28;20391;-73
2022/04/26 10:44:15;;;;;;;;;;;20.30;75.90;;;;;;5089699;28;19920;-73
2022/04/26 10:46:45;;;;;;;;;;;19.70;74.30;;;;;;5093724;28;20007;-73
2022/04/26 10:49:29;;;;;;;;;;;18.90;75.50;;;;;;5093143;28;19985;-74
2022/04/26 10:51:56;;;;;;;;;;;19.20;76.10;;;;;;5094896;28;19924;-73
2022/04/26 10:54:40;;;;;;;;;;;20.20;77.20;;;;;;5093399;28;20017;-74
2022/04/26 10:57:06;;;;;;;;;;;19.50;73.90;;;;;;5090317;28;19973;-72
2022/04/26 10:59:31;;;;;;;;;;;18.30;76.40;;;;;;5094286;28;19924;-72
2022/04/26 11:01:57;;;;;;;;;;;18.00;77.40;;;;;;5101164;28;19927;-72
2022/04/26 11:04:22;;;;;;;;;;;18.30;78.60;;;;;;5106125;28;19927;-73
2022/04/26 11:06:51;;;;;;;;;;;18.60;78.40;;;;;;5092635;28;19919;-73
2022/04/26 11:09:16;;;;;;;;;;;18.40;76.10;;;;;;5092519;28;19928;-73
2022/04/26 11:11:48;;;;;;;;;;;19.00;75.50;;;;;;5094965;28;20079;-72
2022/04/26 11:14:16;;;;;;;;;;;19.80;75.10;;;;;;5089939;28;19920;-73
2022/04/26 11:16:54;;;;;;;;;;;19.30;73.90;;;;;;5084368;28;19920;-81
2022/04/26 11:19:28;;;;;;;;;;;18.80;75.00;;;;;;5099800;28;19927;-77
2022/04/26 11:21:54;;;;;;;;;;;19.20;75.30;;;;;;5106042;28;20363;-73
2022/04/26 11:29:54;;;;;;;;;;;20.00;75.40;;;;;;5090753;28;19932;-72
2022/04/26 11:32:32;;;;;;;;;;;20.00;75.40;;;;;;5089951;28;20349;-72
2022/04/26 11:34:59;;;;;;;;;;;19.80;71.50;;;;;;5091980;28;19927;-77
2022/04/26 11:37:24;;;;;;;;;;;19.20;73.40;;;;;;5088547;28;19921;-77
2022/04/26 11:39:50;;;;;;;;;;;18.60;75.00;;;;;;5092128;28;19927;-76
2022/04/26 11:42:16;;;;;;;;;;;19.00;74.90;;;;;;5093073;28;20480;-76
2022/04/26 11:45:00;;;;;;;;;;;18.50;73.70;;;;;;5091996;28;19927;-81
2022/04/26 11:47:44;;;;;;;;;;;17.90;75.30;;;;;;5094078;28;19934;-73
2022/04/26 11:50:20;;;;;;;;;;;18.50;77.90;;;;;;5089024;28;19935;-75
2022/04/26 11:52:47;;;;;;;;;;;19.10;75.20;;;;;;5088933;28;19928;-76
2022/04/26 11:55:19;;;;;;;;;;;19.60;75.00;;;;;;5107497;28;19935;-76
2022/04/26 11:57:48;;;;;;;;;;;20.00;73.60;;;;;;5092318;28;19930;-74
2022/04/26 12:00:14;;;;;;;;;;;19.20;73.50;;;;;;5091541;28;19919;-73
2022/04/26 12:02:40;;;;;;;;;;;19.30;74.50;;;;;;5099506;28;20376;-76
2022/04/26 12:05:07;;;;;;;;;;;19.20;72.10;;;;;;5092449;28;19924;-71
2022/04/26 12:07:33;;;;;;;;;;;18.70;72.10;;;;;;5092837;28;19978;-73
2022/04/26 12:09:58;;;;;;;;;;;18.20;73.90;;;;;;5091098;28;19963;-74
2022/04/26 12:12:24;;;;;;;;;;;18.40;73.70;;;;;;5091734;28;20033;-73
2022/04/26 12:14:50;;;;;;;;;;;18.00;76.40;;;;;;5090844;28;19931;-71
2022/04/26 12:17:19;;;;;;;;;;;17.60;75.20;;;;;;5089666;28;20037;-74
2022/04/26 12:19:50;;;;;;;;;;;17.80;76.50;;;;;;5087326;28;20471;-85
2022/04/26 12:22:17;;;;;;;;;;;17.80;75.30;;;;;;5089341;28;19970;-83
2022/04/26 12:24:51;;;;;;;;;;;17.70;75.50;;;;;;5088659;28;19920;-82
2022/04/26 12:27:19;;;;;;;;;;;17.90;77.60;;;;;;5090656;28;20443;-75
2022/04/26 12:29:46;;;;;;;;;;;18.60;78.20;;;;;;5092001;28;19928;-80
2022/04/26 12:32:23;;;;;;;;;;;18.40;74.50;;;;;;5089733;28;19927;-77
2022/04/26 12:34:53;;;;;;;;;;;17.90;75.00;;;;;;5091322;28;20467;-74
2022/04/26 12:37:21;;;;;;;;;;;17.50;77.60;;;;;;5092608;28;19944;-76
2022/04/26 12:39:48;;;;;;;;;;;17.30;78.10;;;;;;5089010;28;19924;-82
2022/04/26 12:42:29;;;;;;;;;;;17.30;81.10;;;;;;5089392;28;19959;-84
2022/04/26 12:44:55;;;;;;;;;;;17.50;76.70;;;;;;5090226;28;19920;-77
2022/04/26 12:50:28;;;;;;;;;;;17.70;77.10;;;;;;5092499;28;19920;-79
2022/04/26 12:52:55;;;;;;;;;;;17.70;75.30;;;;;;5105415;28;19920;-77
2022/04/26 12:55:40;;;;;;;;;;;17.80;74.70;;;;;;5091543;28;19928;-75
2022/04/26 12:58:05;;;;;;;;;;;17.40;74.90;;;;;;5089241;28;19924;-74
2022/04/26 13:00:31;;;;;;;;;;;17.10;77.60;;;;;;5091206;28;19927;-72
2022/04/26 13:02:58;;;;;;;;;;;17.10;79.00;;;;;;5091086;28;19920;-73
2022/04/26 13:05:24;;;;;;;;;;;17.30;76.70;;;;;;5089106;28;19928;-75
2022/04/26 13:07:51;;;;;;;;;;;17.60;77.60;;;;;;5084296;28;19924;-75
2022/04/26 13:10:18;;;;;;;;;;;17.80;75.60;;;;;;5092449;28;20298;-74
2022/04/26 13:12:43;;;;;;;;;;;17.60;74.40;;;;;;5090845;28;20030;-77
2022/04/26 13:15:15;;;;;;;;;;;17.50;77.30;;;;;;5091966;28;20023;-74
2022/04/26 13:17:41;;;;;;;;;;;17.40;74.90;;;;;;5089744;28;19920;-75
2022/04/26 13:20:07;;;;;;;;;;;17.60;75.10;;;;;;5098703;28;19920;-79
2022/04/26 13:22:34;;;;;;;;;;;18.00;74.10;;;;;;5106655;28;19954;-76
2022/04/26 13:24:59;;;;;;;;;;;17.90;73.80;;;;;;5088551;28;19920;-77
2022/04/26 13:27:25;;;;;;;;;;;18.00;73.60;;;;;;5098936;28;19931;-82
2022/04/26 13:29:50;;;;;;;;;;;17.50;74.30;;;;;;5090780;28;19927;-79
2022/04/26 13:32:17;;;;;;;;;;;17.50;75.30;;;;;;5091792;28;19928;-84
2022/04/26 13:34:44;;;;;;;;;;;17.40;76.80;;;;;;5094712;28;19963;-79
2022/04/26 13:37:09;;;;;;;;;;;17.10;76.90;;;;;;5107230;28;19926;-80
2022/04/26 13:39:40;;;;;;;;;;;16.80;77.00;;;;;;5099185;28;19970;-78
2022/04/26 13:42:06;;;;;;;;;;;16.60;78.70;;;;;;5099116;28;19923;-76
2022/04/26 13:44:32;;;;;;;;;;;16.20;79.70;;;;;;5091110;28;19974;-78
2022/04/26 13:46:58;;;;;;;;;;;16.30;80.90;;;;;;5091436;28;19927;-76
2022/04/26 13:49:27;;;;;;;;;;;16.40;78.40;;;;;;5091046;28;20540;-79
2022/04/26 13:51:52;;;;;;;;;;;16.60;79.60;;;;;;5087085;28;19920;-79
2022/04/26 13:54:18;;;;;;;;;;;16.80;81.30;;;;;;5089806;28;19927;-82
2022/04/26 13:56:44;;;;;;;;;;;16.50;78.10;;;;;;5091059;28;19927;-74
2022/04/26 13:59:10;;;;;;;;;;;16.10;79.40;;;;;;5091019;28;20455;-73
2022/04/26 14:01:35;;;;;;;;;;;16.40;80.40;;;;;;5089455;28;20011;-79
2022/04/26 14:04:01;;;;;;;;;;;16.80;79.90;;;;;;5089437;28;19920;-75
2022/04/26 14:06:26;;;;;;;;;;;17.00;79.40;;;;;;5092678;28;19924;-71
2022/04/26 14:08:52;;;;;;;;;;;17.00;78.10;;;;;;5102453;28;20253;-71
2022/04/26 14:11:18;;;;;;;;;;;17.00;79.40;;;;;;5088190;28;19973;-69
2022/04/26 14:21:56;;;;;;;;;;;16.30;81.70;;;;;;5087340;28;20531;-76
2022/04/26 14:24:22;;;;;;;;;;;16.00;82.60;;;;;;5090570;28;19920;-75
2022/04/26 14:26:49;;;;;;;;;;;15.70;80.20;;;;;;5080919;28;20394;-75
2022/04/26 14:29:15;;;;;;;;;;;15.50;79.90;;;;;;5090363;28;19927;-77
2022/04/26 14:31:41;;;;;;;;;;;15.80;82.60;;;;;;5097031;28;19928;-75
2022/04/26 14:34:07;;;;;;;;;;;16.00;83.10;;;;;;5087360;28;20046;-77
2022/04/26 14:36:32;;;;;;;;;;;15.80;82.70;;;;;;5092740;28;20028;-81
2022/04/26 14:38:58;;;;;;;;;;;15.80;81.10;;;;;;5089832;28;19920;-78
2022/04/26 14:41:25;;;;;;;;;;;15.40;81.20;;;;;;5095352;28;19927;-80
2022/04/26 14:43:50;;;;;;;;;;;15.30;80.20;;;;;;5084691;28;19974;-80
2022/04/26 14:46:16;;;;;;;;;;;15.00;82.90;;;;;;5091220;28;20393;-79
2022/04/26 14:48:41;;;;;;;;;;;14.90;81.70;;;;;;5091523;28;20006;-84
2022/04/26 14:51:07;;;;;;;;;;;14.70;84.40;;;;;;5088730;28;19920;-92
2022/04/26 14:53:33;;;;;;;;;;;14.60;84.20;;;;;;5091612;28;19924;-85
2022/04/26 14:55:59;;;;;;;;;;;14.40;83.20;;;;;;5096559;28;19920;-83
2022/04/26 14:58:24;;;;;;;;;;;14.40;84.20;;;;;;5087318;28;19928;-78
2022/04/26 15:00:51;;;;;;;;;;;14.20;83.80;;;;;;5086399;28;19928;-75
2022/04/26 15:03:17;;;;;;;;;;;14.30;84.90;;;;;;5092578;28;19924;-77
2022/04/26 15:05:45;;;;;;;;;;;14.40;86.20;;;;;;5088851;28;19945;-80
2022/04/26 15:10:55;;;;;;;;;;;15.10;87.80;;;;;;5092239;28;20291;-74
2022/04/26 15:18:49;;;;;;;;;;;15.90;81.20;;;;;;5093006;28;19924;-78
2022/04/26 15:21:15;;;;;;;;;;;15.80;81.20;;;;;;5084252;28;19955;-79
2022/04/26 15:23:40;;;;;;;;;;;15.60;80.90;;;;;;5087662;28;19963;-79
2022/04/26 15:26:06;;;;;;;;;;;15.50;82.60;;;;;;5094122;28;19967;-72
2022/04/26 15:28:33;;;;;;;;;;;15.70;81.80;;;;;;5082263;28;20283;-77
2022/04/26 15:30:59;;;;;;;;;;;15.50;82.10;;;;;;5093167;28;19920;-75
2022/04/26 15:33:25;;;;;;;;;;;15.60;82.80;;;;;;5092616;28;20279;-74
2022/04/26 15:35:51;;;;;;;;;;;15.80;82.20;;;;;;5106046;28;19927;-78
2022/04/26 15:38:17;;;;;;;;;;;16.00;81.60;;;;;;5093627;28;19924;-73
2022/04/26 15:40:46;;;;;;;;;;;15.90;80.90;;;;;;5082267;28;19924;-73
2022/04/26 15:43:12;;;;;;;;;;;15.80;80.20;;;;;;5089814;28;20508;-74
2022/04/26 15:45:40;;;;;;;;;;;15.90;80.40;;;;;;5093467;28;20022;-78
2022/04/26 15:48:06;;;;;;;;;;;15.80;81.40;;;;;;5091045;28;19949;-76
2022/04/26 15:50:32;;;;;;;;;;;15.90;79.60;;;;;;5099506;28;19920;-76
2022/04/26 15:52:57;;;;;;;;;;;15.80;82.10;;;;;;5089368;28;19931;-77
2022/04/26 15:55:23;;;;;;;;;;;15.80;81.40;;;;;;5092863;28;20578;-79
2022/04/26 15:57:49;;;;;;;;;;;15.90;83.00;;;;;;5102350;28;19931;-67
2022/04/26 16:00:15;;;;;;;;;;;15.80;84.40;;;;;;5094962;28;19920;-77
2022/04/26 16:02:43;;;;;;;;;;;15.80;84.20;;;;;;5080571;28;19931;-73
2022/04/26 16:05:09;;;;;;;;;;;16.00;83.30;;;;;;5111086;28;19920;-74
2022/04/26 16:07:34;;;;;;;;;;;15.80;84.10;;;;;;5106583;28;20440;-74
2022/04/26 16:20:56;;;;;;;;;;;14.30;89.20;;;;;;5105063;28;19919;-72
2022/04/26 16:23:22;;;;;;;;;;;14.10;89.70;;;;;;5092535;28;19927;-73
2022/04/26 16:25:47;;;;;;;;;;;13.90;90.10;;;;;;5094444;28;19920;-73
2022/04/26 16:28:14;;;;;;;;;;;13.70;91.10;;;;;;5099679;28;19931;-72
2022/04/26 16:30:41;;;;;;;;;;;13.60;92.00;;;;;;5091138;28;19926;-71
2022/04/26 16:33:12;;;;;;;;;;;13.50;91.30;;;;;;5090952;28;19920;-71
2022/04/26 16:35:37;;;;;;;;;;;13.80;92.00;;;;;;5090276;28;19930;-71
2022/04/26 16:38:03;;;;;;;;;;;13.10;92.50;;;;;;5090307;28;19992;-72
2022/04/26 16:40:28;;;;;;;;;;;13.00;92.40;;;;;;5093412;28;19942;-75
2022/04/26 16:42:54;;;;;;;;;;;13.00;92.10;;;;;;5094434;28;19928;-72
2022/04/26 16:45:20;;;;;;;;;;;12.90;93.40;;;;;;5093905;28;20336;-72
2022/04/26 16:47:51;;;;;;;;;;;12.90;94.60;;;;;;5094832;28;19981;-72
2022/04/26 16:50:16;;;;;;;;;;;12.80;94.70;;;;;;5089410;28;20470;-71
2022/04/26 16:52:46;;;;;;;;;;;12.80;95.10;;;;;;5093671;28;19927;-72
2022/04/26 16:55:11;;;;;;;;;;;12.70;96.00;;;;;;5098547;28;19919;-78
2022/04/26 16:57:37;;;;;;;;;;;12.70;95.50;;;;;;5114159;28;19919;-75
2022/04/26 17:00:06;;;;;;;;;;;12.60;97.10;;;;;;5113370;28;19923;-74
2022/04/26 17:02:33;;;;;;;;;;;12.60;95.80;;;;;;5113804;28;19919;-73
2022/04/26 17:04:58;;;;;;;;;;;12.60;95.80;;;;;;5113330;28;19927;-73
2022/04/26 17:07:25;;;;;;;;;;;12.50;96.60;;;;;;5105209;28;20272;-73
2022/04/26 17:09:51;;;;;;;;;;;12.40;96.10;;;;;;5072270;28;19982;-73
2022/04/26 17:12:16;;;;;;;;;;;12.40;96.10;;;;;;5079389;28;19928;-74
2022/04/26 17:14:42;;;;;;;;;;;12.40;96.80;;;;;;5091715;28;19920;-73
2022/04/26 17:17:08;;;;;;;;;;;12.30;97.10;;;;;;5100578;28;19920;-73
2022/04/26 17:19:34;;;;;;;;;;;12.40;97.60;;;;;;5091737;28;19963;-74
2022/04/26 17:22:01;;;;;;;;;;;12.40;97.60;;;;;;5091882;28;19924;-74
2022/04/26 17:27:11;;;;;;;;;;;12.60;97.00;;;;;;5105813;28;19964;-72
2022/04/26 17:29:37;;;;;;;;;;;12.60;96.70;;;;;;5092997;28;19927;-73
2022/04/26 17:32:03;;;;;;;;;;;12.60;97.10;;;;;;5091347;28;19920;-73
2022/04/26 17:34:29;;;;;;;;;;;12.80;97.80;;;;;;5091823;28;19990;-75
2022/04/26 17:36:54;;;;;;;;;;;13.00;97.10;;;;;;5091978;28;19981;-74
2022/04/26 17:39:23;;;;;;;;;;;13.10;95.70;;;;;;5089353;28;19920;-76
2022/04/26 17:41:49;;;;;;;;;;;13.10;94.90;;;;;;5085343;28;19994;-76
2022/04/26 17:44:16;;;;;;;;;;;13.20;95.20;;;;;;5090745;28;19924;-72
2022/04/26 17:46:41;;;;;;;;;;;13.20;95.30;;;;;;5090961;28;20390;-73
2022/04/26 17:49:07;;;;;;;;;;;13.10;95.60;;;;;;5090324;28;19920;-76
2022/04/26 17:51:32;;;;;;;;;;;13.00;95.70;;;;;;5090230;28;20041;-74
2022/04/26 17:56:43;;;;;;;;;;;12.90;96.50;;;;;;5107498;28;19920;-71
2022/04/26 17:59:08;;;;;;;;;;;12.80;97.00;;;;;;5092372;28;19924;-70
2022/04/26 18:01:34;;;;;;;;;;;12.50;96.80;;;;;;5085163;28;19928;-72
2022/04/26 18:04:00;;;;;;;;;;;12.90;97.70;;;;;;5083523;28;19927;-72
2022/04/26 18:06:26;;;;;;;;;;;12.40;97.50;;;;;;5083081;28;19927;-73
2022/04/26 18:08:52;;;;;;;;;;;12.30;97.50;;;;;;5077006;28;20015;-69
2022/04/26 18:11:17;;;;;;;;;;;12.30;97.80;;;;;;5072004;28;19939;-67
2022/04/26 18:13:43;;;;;;;;;;;12.30;97.80;;;;;;5073724;28;19963;-70
2022/04/26 18:16:09;;;;;;;;;;;12.20;98.60;;;;;;5082035;28;19920;-69
2022/04/26 18:18:35;;;;;;;;;;;12.10;98.40;;;;;;5092279;28;20259;-69
2022/04/26 18:21:00;;;;;;;;;;;12.00;98.20;;;;;;5097441;28;19920;-68
2022/04/26 18:23:27;;;;;;;;;;;11.90;99.00;;;;;;5086979;28;19931;-67
2022/04/26 18:26:11;;;;;;;;;;;11.80;99.10;;;;;;5094101;28;19927;-66
2022/04/26 18:28:37;;;;;;;;;;;11.70;99.60;;;;;;5085996;28;20026;-72
2022/04/26 18:31:02;;;;;;;;;;;11.60;99.60;;;;;;5084127;28;19958;-68
2022/04/26 18:33:28;;;;;;;;;;;11.50;99.90;;;;;;5091154;28;19967;-67
2022/04/26 18:35:54;;;;;;;;;;;11.30;99.90;;;;;;5093025;28;19923;-69
2022/04/26 18:38:22;;;;;;;;;;;11.20;99.90;;;;;;5100347;28;19959;-68
2022/04/26 18:40:48;;;;;;;;;;;11.10;99.90;;;;;;5094949;28;19951;-68
2022/04/26 18:43:15;;;;;;;;;;;10.90;99.90;;;;;;5098045;28;19916;-67
2022/04/26 18:45:40;;;;;;;;;;;10.80;99.90;;;;;;5105416;28;19928;-66
2022/04/26 18:48:07;;;;;;;;;;;10.70;99.90;;;;;;5104842;28;19969;-69
2022/04/26 18:50:33;;;;;;;;;;;10.50;99.90;;;;;;5111143;28;19965;-69
2022/04/26 18:52:58;;;;;;;;;;;10.40;99.90;;;;;;5106894;28;19920;-69